createdAt,value
2019-02-24T00:00:48.912Z,90.00
2019-02-24T00:01:49.115Z,90.00
2019-02-24T00:02:48.954Z,90.00
2019-02-24T00:03:48.952Z,90.00
2019-02-24T00:04:48.930Z,90.00
2019-02-24T00:05:48.950Z,90.00
2019-02-24T00:06:48.972Z,90.00
2019-02-24T00:07:48.974Z,90.00
2019-02-24T00:08:49.003Z,90.00
2019-02-24T00:09:48.975Z,90.00
2019-02-24T00:10:48.993Z,90.00
2019-02-24T00:11:49.006Z,90.00
2019-02-24T00:12:49.028Z,90.00
2019-02-24T00:13:49.006Z,90.00
2019-02-24T00:14:49.042Z,90.00
2019-02-24T00:15:49.034Z,90.00
2019-02-24T00:16:49.025Z,90.00
2019-02-24T00:17:49.049Z,90.00
2019-02-24T00:18:49.051Z,90.00
2019-02-24T00:19:49.046Z,90.00
2019-02-24T00:20:49.058Z,90.00
2019-02-24T00:21:49.095Z,90.00
2019-02-24T00:22:49.081Z,90.00
2019-02-24T00:23:49.079Z,90.00
2019-02-24T00:24:49.074Z,90.00
2019-02-24T00:25:49.085Z,90.00
2019-02-24T00:26:49.109Z,90.00
2019-02-24T00:27:48.900Z,90.00
2019-02-24T00:28:48.913Z,90.00
2019-02-24T00:29:49.155Z,90.00
2019-02-24T00:30:48.975Z,90.00
2019-02-24T00:31:48.928Z,90.00
2019-02-24T00:32:48.949Z,90.00
2019-02-24T00:33:48.966Z,171.54
2019-02-24T00:34:48.957Z,180.37
2019-02-24T00:35:48.960Z,105.62
2019-02-24T00:36:49.014Z,135.00
2019-02-24T00:37:48.999Z,135.00
2019-02-24T00:38:48.988Z,135.00
2019-02-24T00:39:49.006Z,135.00
2019-02-24T00:40:48.973Z,135.00
2019-02-24T00:41:49.408Z,135.00
2019-02-24T00:42:48.996Z,135.00
2019-02-24T00:43:49.010Z,135.00
2019-02-24T00:44:49.051Z,135.00
2019-02-24T00:45:49.091Z,133.45
2019-02-24T00:46:49.033Z,90.00
2019-02-24T00:47:49.048Z,90.00
2019-02-24T00:48:49.105Z,90.00
2019-02-24T00:49:49.079Z,90.00
2019-02-24T00:50:49.072Z,90.00
2019-02-24T00:51:49.101Z,90.00
2019-02-24T00:52:49.074Z,90.00
2019-02-24T00:53:49.119Z,90.00
2019-02-24T00:54:49.104Z,90.00
2019-02-24T00:55:49.173Z,90.00
2019-02-24T00:56:49.159Z,90.00
2019-02-24T00:57:48.950Z,90.00
2019-02-24T00:58:48.917Z,90.00
2019-02-24T00:59:48.909Z,90.00
2019-02-24T01:00:48.920Z,90.00
2019-02-24T01:01:49.146Z,90.00
2019-02-24T01:02:48.963Z,90.00
2019-02-24T01:03:48.946Z,90.00
2019-02-24T01:04:48.967Z,90.00
2019-02-24T01:05:48.995Z,90.00
2019-02-24T01:06:48.993Z,90.00
2019-02-24T01:07:49.012Z,90.00
2019-02-24T01:08:49.021Z,90.00
2019-02-24T01:09:49.039Z,90.00
2019-02-24T01:10:49.003Z,90.00
2019-02-24T01:11:49.008Z,90.00
2019-02-24T01:12:49.056Z,90.00
2019-02-24T01:13:49.053Z,90.00
2019-02-24T01:14:49.064Z,90.00
2019-02-24T01:15:49.071Z,90.00
2019-02-24T01:16:49.068Z,90.00
2019-02-24T01:17:49.049Z,90.00
2019-02-24T01:18:49.098Z,90.00
2019-02-24T01:19:49.116Z,90.00
2019-02-24T01:20:49.096Z,90.00
2019-02-24T01:21:49.091Z,90.00
2019-02-24T01:22:49.098Z,90.00
2019-02-24T01:23:49.110Z,90.00
2019-02-24T01:24:49.110Z,90.00
2019-02-24T01:25:49.111Z,117.13
2019-02-24T01:26:49.144Z,133.45
2019-02-24T01:27:48.941Z,90.00
2019-02-24T01:28:48.979Z,90.00
2019-02-24T01:29:48.934Z,90.00
2019-02-24T01:30:48.989Z,90.00
2019-02-24T01:31:48.975Z,111.92
2019-02-24T01:32:49.040Z,135.00
2019-02-24T01:33:49.004Z,135.00
2019-02-24T01:34:48.977Z,135.00
2019-02-24T01:35:48.993Z,135.00
2019-02-24T01:36:48.998Z,135.00
2019-02-24T01:37:48.998Z,135.00
2019-02-24T01:38:49.011Z,135.00
2019-02-24T01:39:49.046Z,135.00
2019-02-24T01:40:49.227Z,135.00
2019-02-24T01:41:49.040Z,135.00
2019-02-24T01:42:49.052Z,135.00
2019-02-24T01:43:49.075Z,135.00
2019-02-24T01:44:49.070Z,135.00
2019-02-24T01:45:49.065Z,135.00
2019-02-24T01:46:49.080Z,135.00
2019-02-24T01:47:49.094Z,135.00
2019-02-24T01:48:49.090Z,135.00
2019-02-24T01:49:49.091Z,135.00
2019-02-24T01:50:49.100Z,135.00
2019-02-24T01:51:49.107Z,135.00
2019-02-24T01:52:49.149Z,135.00
2019-02-24T01:53:49.115Z,135.00
2019-02-24T01:54:49.122Z,135.00
2019-02-24T01:55:49.134Z,135.00
2019-02-24T01:56:49.154Z,135.00
2019-02-24T01:57:48.959Z,135.00
2019-02-24T01:58:48.939Z,135.00
2019-02-24T01:59:48.986Z,135.00
2019-02-24T02:00:48.955Z,135.00
2019-02-24T02:01:48.964Z,135.00
2019-02-24T02:02:49.007Z,135.00
2019-02-24T02:03:49.012Z,135.00
2019-02-24T02:04:49.015Z,135.00
2019-02-24T02:05:49.000Z,135.00
2019-02-24T02:06:49.004Z,135.00
2019-02-24T02:07:49.010Z,135.00
2019-02-24T02:08:49.053Z,135.00
2019-02-24T02:09:49.045Z,135.00
2019-02-24T02:10:49.060Z,135.00
2019-02-24T02:11:49.052Z,135.00
2019-02-24T02:12:49.051Z,135.00
2019-02-24T02:13:49.069Z,135.00
2019-02-24T02:14:49.110Z,135.00
2019-02-24T02:15:49.097Z,135.00
2019-02-24T02:16:49.069Z,135.00
2019-02-24T02:17:49.097Z,135.00
2019-02-24T02:18:49.350Z,135.00
2019-02-24T02:19:49.109Z,135.00
2019-02-24T02:20:49.103Z,135.00
2019-02-24T02:21:49.120Z,135.00
2019-02-24T02:22:49.121Z,135.00
2019-02-24T02:23:49.143Z,135.00
2019-02-24T02:24:49.145Z,135.00
2019-02-24T02:25:49.158Z,135.00
2019-02-24T02:26:49.189Z,135.00
2019-02-24T02:27:48.986Z,135.00
2019-02-24T02:28:48.960Z,135.00
2019-02-24T02:29:48.981Z,135.00
2019-02-24T02:30:48.968Z,147.90
2019-02-24T02:31:49.012Z,225.00
2019-02-24T02:32:49.417Z,225.00
2019-02-24T02:33:49.004Z,225.00
2019-02-24T02:34:49.239Z,225.00
2019-02-24T02:35:49.041Z,225.00
2019-02-24T02:36:49.037Z,225.00
2019-02-24T02:37:49.233Z,225.00
2019-02-24T02:38:49.251Z,225.00
2019-02-24T02:39:49.262Z,225.00
2019-02-24T02:40:49.277Z,225.00
2019-02-24T02:41:49.286Z,225.00
2019-02-24T02:42:49.312Z,225.00
2019-02-24T02:43:49.488Z,225.00
2019-02-24T02:44:49.287Z,225.00
2019-02-24T02:45:49.294Z,225.00
2019-02-24T02:46:49.284Z,225.00
2019-02-24T02:47:49.302Z,225.00
2019-02-24T02:48:49.328Z,225.00
2019-02-24T02:49:49.332Z,225.00
2019-02-24T02:50:49.377Z,225.00
2019-02-24T02:51:49.371Z,225.00
2019-02-24T02:52:49.345Z,225.00
2019-02-24T02:53:49.344Z,225.00
2019-02-24T02:54:49.355Z,225.00
2019-02-24T02:55:49.365Z,225.00
2019-02-24T02:56:49.433Z,225.00
2019-02-24T02:57:49.420Z,225.00
2019-02-24T02:58:54.318Z,225.00
2019-02-24T02:59:49.389Z,225.00
2019-02-24T03:00:49.424Z,225.00
2019-02-24T03:01:49.435Z,225.00
2019-02-24T03:02:49.448Z,225.00
2019-02-24T03:03:49.471Z,225.00
2019-02-24T03:04:49.451Z,225.00
2019-02-24T03:05:49.446Z,225.00
2019-02-24T03:06:49.444Z,225.00
2019-02-24T03:07:49.451Z,225.00
2019-02-24T03:08:49.485Z,225.00
2019-02-24T03:09:49.485Z,225.00
2019-02-24T03:10:49.503Z,225.00
2019-02-24T03:11:49.287Z,225.00
2019-02-24T03:12:49.298Z,225.00
2019-02-24T03:13:49.301Z,225.00
2019-02-24T03:14:49.322Z,225.00
2019-02-24T03:15:49.343Z,225.00
2019-02-24T03:16:49.332Z,225.00
2019-02-24T03:17:49.319Z,225.00
2019-02-24T03:18:49.355Z,225.00
2019-02-24T03:19:49.357Z,225.00
2019-02-24T03:20:49.357Z,225.00
2019-02-24T03:21:49.345Z,225.00
2019-02-24T03:22:49.368Z,225.00
2019-02-24T03:23:49.358Z,225.00
2019-02-24T03:24:49.372Z,225.00
2019-02-24T03:25:49.384Z,225.00
2019-02-24T03:26:49.410Z,225.00
2019-02-24T03:27:49.424Z,225.00
2019-02-24T03:28:49.408Z,225.00
2019-02-24T03:29:49.406Z,225.00
2019-02-24T03:30:49.462Z,225.00
2019-02-24T03:31:49.475Z,225.00
2019-02-24T03:32:49.434Z,225.00
2019-02-24T03:33:49.503Z,225.00
2019-02-24T03:34:49.462Z,225.00
2019-02-24T03:35:49.673Z,225.00
2019-02-24T03:36:49.447Z,225.00
2019-02-24T03:37:49.501Z,225.00
2019-02-24T03:38:49.492Z,225.00
2019-02-24T03:39:49.485Z,225.00
2019-02-24T03:40:49.509Z,225.00
2019-02-24T03:41:49.323Z,225.00
2019-02-24T03:42:49.323Z,225.00
2019-02-24T03:43:49.296Z,225.00
2019-02-24T03:44:49.334Z,225.00
2019-02-24T03:45:49.337Z,225.00
2019-02-24T03:46:49.344Z,225.00
2019-02-24T03:47:49.331Z,225.00
2019-02-24T03:48:49.360Z,225.00
2019-02-24T03:49:49.354Z,225.00
2019-02-24T03:50:49.422Z,225.00
2019-02-24T03:51:49.372Z,225.00
2019-02-24T03:52:49.404Z,225.00
2019-02-24T03:53:49.378Z,225.00
2019-02-24T03:54:49.386Z,225.00
2019-02-24T03:55:49.389Z,225.00
2019-02-24T03:56:49.406Z,225.00
2019-02-24T03:57:49.449Z,225.00
2019-02-24T03:58:49.438Z,225.00
2019-02-24T03:59:49.416Z,225.00
2019-02-24T04:00:49.429Z,225.00
2019-02-24T04:01:49.457Z,225.00
2019-02-24T04:02:49.449Z,225.00
2019-02-24T04:03:49.683Z,225.00
2019-02-24T04:04:49.482Z,225.00
2019-02-24T04:05:49.481Z,225.00
2019-02-24T04:06:49.481Z,225.00
2019-02-24T04:07:49.472Z,225.00
2019-02-24T04:08:49.517Z,225.00
2019-02-24T04:09:49.514Z,225.00
2019-02-24T04:10:49.521Z,225.00
2019-02-24T04:11:49.295Z,225.00
2019-02-24T04:12:49.322Z,225.00
2019-02-24T04:13:49.357Z,225.00
2019-02-24T04:14:49.344Z,225.00
2019-02-24T04:15:49.380Z,225.00
2019-02-24T04:16:49.339Z,266.28
2019-02-24T04:17:49.369Z,315.00
2019-02-24T04:18:49.347Z,271.04
2019-02-24T04:19:49.374Z,302.58
2019-02-24T04:20:49.401Z,315.00
2019-02-24T04:21:49.382Z,315.00
2019-02-24T04:22:49.383Z,315.00
2019-02-24T04:23:49.385Z,315.00
2019-02-24T04:24:49.453Z,315.00
2019-02-24T04:25:49.397Z,315.00
2019-02-24T04:26:49.420Z,315.00
2019-02-24T04:27:49.463Z,315.00
2019-02-24T04:28:49.432Z,315.00
2019-02-24T04:29:49.443Z,303.02
2019-02-24T04:30:49.446Z,234.12
2019-02-24T04:31:49.449Z,303.42
2019-02-24T04:32:49.465Z,315.00
2019-02-24T04:33:49.487Z,315.00
2019-02-24T04:34:49.500Z,315.00
2019-02-24T04:35:49.461Z,315.00
2019-02-24T04:36:49.469Z,325.60
2019-02-24T04:37:49.513Z,315.00
2019-02-24T04:38:49.518Z,315.00
2019-02-24T04:39:49.515Z,315.00
2019-02-24T04:40:49.714Z,315.00
2019-02-24T04:41:49.568Z,301.73
2019-02-24T04:42:49.331Z,270.00
2019-02-24T04:43:49.331Z,270.00
2019-02-24T04:44:49.365Z,270.00
2019-02-24T04:45:49.391Z,270.00
2019-02-24T04:46:49.383Z,270.00
2019-02-24T04:47:49.362Z,266.19
2019-02-24T04:48:49.357Z,47.99
2019-02-24T04:49:49.396Z,349.10
2019-02-24T04:50:49.383Z,315.00
2019-02-24T04:51:49.426Z,315.00
2019-02-24T04:52:49.410Z,135.00
2019-02-24T04:53:49.420Z,135.00
2019-02-24T04:54:49.403Z,135.00
2019-02-24T04:55:49.429Z,135.00
2019-02-24T04:56:49.449Z,135.00
2019-02-24T04:57:49.491Z,135.00
2019-02-24T04:58:49.433Z,135.00
2019-02-24T04:59:49.444Z,135.00
2019-02-24T05:00:49.480Z,135.00
2019-02-24T05:01:49.472Z,135.00
2019-02-24T05:02:49.479Z,135.00
2019-02-24T05:03:49.499Z,135.00
2019-02-24T05:04:49.542Z,217.94
2019-02-24T05:05:49.496Z,270.00
2019-02-24T05:06:49.526Z,270.00
2019-02-24T05:07:49.532Z,270.00
2019-02-24T05:08:49.516Z,270.00
2019-02-24T05:09:49.531Z,270.00
2019-02-24T05:10:49.555Z,270.00
2019-02-24T05:11:49.351Z,270.00
2019-02-24T05:12:49.342Z,270.00
2019-02-24T05:13:49.372Z,90.00
2019-02-24T05:14:49.385Z,90.00
2019-02-24T05:15:49.402Z,90.00
2019-02-24T05:16:49.363Z,105.36
2019-02-24T05:17:49.396Z,135.00
2019-02-24T05:18:49.389Z,135.00
2019-02-24T05:19:49.404Z,135.00
2019-02-24T05:20:49.436Z,135.00
2019-02-24T05:21:49.424Z,135.00
2019-02-24T05:22:49.413Z,135.00
2019-02-24T05:23:49.414Z,135.00
2019-02-24T05:24:49.429Z,135.00
2019-02-24T05:25:49.457Z,135.00
2019-02-24T05:26:49.459Z,135.00
2019-02-24T05:27:49.494Z,135.00
2019-02-24T05:28:49.471Z,135.00
2019-02-24T05:29:49.495Z,135.00
2019-02-24T05:30:49.478Z,135.00
2019-02-24T05:31:49.507Z,315.00
2019-02-24T05:32:49.485Z,315.00
2019-02-24T05:33:49.499Z,315.00
2019-02-24T05:34:49.496Z,275.52
2019-02-24T05:35:49.509Z,270.00
2019-02-24T05:36:49.537Z,270.00
2019-02-24T05:37:49.564Z,270.00
2019-02-24T05:38:49.778Z,270.00
2019-02-24T05:39:49.534Z,270.00
2019-02-24T05:40:49.540Z,270.00
2019-02-24T05:41:49.545Z,270.00
2019-02-24T05:42:49.749Z,270.00
2019-02-24T05:43:49.576Z,270.00
2019-02-24T05:44:49.610Z,270.00
2019-02-24T05:45:49.571Z,270.00
2019-02-24T05:46:49.598Z,270.00
2019-02-24T05:47:49.632Z,270.00
2019-02-24T05:48:49.601Z,270.00
2019-02-24T05:49:49.652Z,270.00
2019-02-24T05:50:49.643Z,270.00
2019-02-24T05:51:49.630Z,270.00
2019-02-24T05:52:49.627Z,270.00
2019-02-24T05:53:49.644Z,270.00
2019-02-24T05:54:51.732Z,270.00
2019-02-24T05:55:49.654Z,270.00
2019-02-24T05:56:49.719Z,270.00
2019-02-24T05:57:49.663Z,270.00
2019-02-24T05:58:49.681Z,270.00
2019-02-24T05:59:55.232Z,270.00
2019-02-24T06:00:49.671Z,270.00
2019-02-24T06:01:49.728Z,270.00
2019-02-24T06:02:49.748Z,270.00
2019-02-24T06:03:49.706Z,270.00
2019-02-24T06:04:49.722Z,270.00
2019-02-24T06:05:49.741Z,270.00
2019-02-24T06:06:49.724Z,270.00
2019-02-24T06:07:49.774Z,270.00
2019-02-24T06:08:49.748Z,270.00
2019-02-24T06:09:49.779Z,270.00
2019-02-24T06:10:49.782Z,270.00
2019-02-24T06:11:49.974Z,270.00
2019-02-24T06:12:49.580Z,270.00
2019-02-24T06:13:49.594Z,270.00
2019-02-24T06:14:49.799Z,335.13
2019-02-24T06:15:49.602Z,0.00
2019-02-24T06:16:49.621Z,0.00
2019-02-24T06:17:49.628Z,336.93
2019-02-24T06:18:49.664Z,315.00
2019-02-24T06:19:49.643Z,315.00
2019-02-24T06:20:49.649Z,315.00
2019-02-24T06:21:49.652Z,315.00
2019-02-24T06:22:49.650Z,315.00
2019-02-24T06:23:49.654Z,315.00
2019-02-24T06:24:49.697Z,315.00
2019-02-24T06:25:49.880Z,315.00
2019-02-24T06:26:49.700Z,193.79
2019-02-24T06:27:49.680Z,161.84
2019-02-24T06:28:49.686Z,135.00
2019-02-24T06:29:49.711Z,135.00
2019-02-24T06:30:49.714Z,135.00
2019-02-24T06:31:49.771Z,135.00
2019-02-24T06:32:49.720Z,135.00
2019-02-24T06:33:49.744Z,135.00
2019-02-24T06:34:49.748Z,135.00
2019-02-24T06:35:49.744Z,135.00
2019-02-24T06:36:49.781Z,135.00
2019-02-24T06:37:49.764Z,135.00
2019-02-24T06:38:49.778Z,135.00
2019-02-24T06:39:49.792Z,135.00
2019-02-24T06:40:49.801Z,135.00
2019-02-24T06:41:49.587Z,315.00
2019-02-24T06:42:49.615Z,315.00
2019-02-24T06:43:49.613Z,315.00
2019-02-24T06:44:49.617Z,315.00
2019-02-24T06:45:49.659Z,315.00
2019-02-24T06:46:49.613Z,315.00
2019-02-24T06:47:49.622Z,315.00
2019-02-24T06:48:49.640Z,315.00
2019-02-24T06:49:49.638Z,315.00
2019-02-24T06:50:49.649Z,315.00
2019-02-24T06:51:49.671Z,315.00
2019-02-24T06:52:49.679Z,315.00
2019-02-24T06:53:49.656Z,276.60
2019-02-24T06:54:49.718Z,225.00
2019-02-24T06:55:49.697Z,225.00
2019-02-24T06:56:50.090Z,207.17
2019-02-24T06:57:49.702Z,135.00
2019-02-24T06:58:49.706Z,135.00
2019-02-24T06:59:49.728Z,135.00
2019-02-24T07:00:49.738Z,153.54
2019-02-24T07:01:49.731Z,180.00
2019-02-24T07:02:49.741Z,180.00
2019-02-24T07:03:49.955Z,180.00
2019-02-24T07:04:49.763Z,180.00
2019-02-24T07:05:49.755Z,180.00
2019-02-24T07:06:49.760Z,180.00
2019-02-24T07:07:49.777Z,180.00
2019-02-24T07:08:49.775Z,91.13
2019-02-24T07:09:49.786Z,90.00
2019-02-24T07:10:49.796Z,122.35
2019-02-24T07:11:49.670Z,135.00
2019-02-24T07:12:49.605Z,135.00
2019-02-24T07:13:49.611Z,135.00
2019-02-24T07:14:49.643Z,135.00
2019-02-24T07:15:49.640Z,135.00
2019-02-24T07:16:49.651Z,135.00
2019-02-24T07:17:49.687Z,135.00
2019-02-24T07:18:49.678Z,135.00
2019-02-24T07:19:49.644Z,135.00
2019-02-24T07:20:49.679Z,135.00
2019-02-24T07:21:49.673Z,135.00
2019-02-24T07:22:49.697Z,135.00
2019-02-24T07:23:49.680Z,135.00
2019-02-24T07:24:49.725Z,100.23
2019-02-24T07:25:49.740Z,90.00
2019-02-24T07:26:49.700Z,90.00
2019-02-24T07:27:49.724Z,90.00
2019-02-24T07:28:49.712Z,90.00
2019-02-24T07:29:49.753Z,68.23
2019-02-24T07:30:49.740Z,315.00
2019-02-24T07:31:49.739Z,315.00
2019-02-24T07:32:49.772Z,315.00
2019-02-24T07:33:49.748Z,315.00
2019-02-24T07:34:49.766Z,315.00
2019-02-24T07:35:49.799Z,315.00
2019-02-24T07:36:49.805Z,315.00
2019-02-24T07:37:49.765Z,315.00
2019-02-24T07:38:49.784Z,315.00
2019-02-24T07:39:49.820Z,315.00
2019-02-24T07:40:49.845Z,56.68
2019-02-24T07:41:50.030Z,90.00
2019-02-24T07:42:49.635Z,90.00
2019-02-24T07:43:49.621Z,90.00
2019-02-24T07:44:49.649Z,90.00
2019-02-24T07:45:49.649Z,90.00
2019-02-24T07:46:49.663Z,90.00
2019-02-24T07:47:49.649Z,90.00
2019-02-24T07:48:49.684Z,90.00
2019-02-24T07:49:49.670Z,90.00
2019-02-24T07:50:49.666Z,90.00
2019-02-24T07:51:49.712Z,90.00
2019-02-24T07:52:49.692Z,90.00
2019-02-24T07:53:49.674Z,286.86
2019-02-24T07:54:49.706Z,90.00
2019-02-24T07:55:49.727Z,90.00
2019-02-24T07:56:49.734Z,122.91
2019-02-24T07:57:49.751Z,106.47
2019-02-24T07:58:49.747Z,90.00
2019-02-24T07:59:49.765Z,90.00
2019-02-24T08:00:49.764Z,90.00
2019-02-24T08:01:49.768Z,90.00
2019-02-24T08:02:49.784Z,90.00
2019-02-24T08:03:49.774Z,90.00
2019-02-24T08:04:49.772Z,90.00
2019-02-24T08:05:49.774Z,90.00
2019-02-24T08:06:49.780Z,90.00
2019-02-24T08:07:49.815Z,90.00
2019-02-24T08:08:49.847Z,79.47
2019-02-24T08:09:49.826Z,45.00
2019-02-24T08:10:50.010Z,45.00
2019-02-24T08:11:49.651Z,45.00
2019-02-24T08:12:49.666Z,319.75
2019-02-24T08:13:49.630Z,270.00
2019-02-24T08:14:49.685Z,285.52
2019-02-24T08:15:49.654Z,315.00
2019-02-24T08:16:49.679Z,315.00
2019-02-24T08:17:49.915Z,315.00
2019-02-24T08:18:51.459Z,356.75
2019-02-24T08:19:49.693Z,0.00
2019-02-24T08:20:49.722Z,0.00
2019-02-24T08:21:49.722Z,353.03
2019-02-24T08:22:49.688Z,315.00
2019-02-24T08:23:49.730Z,315.00
2019-02-24T08:24:49.722Z,315.00
2019-02-24T08:25:49.784Z,315.00
2019-02-24T08:26:49.786Z,315.00
2019-02-24T08:27:49.746Z,315.00
2019-02-24T08:28:49.765Z,229.50
2019-02-24T08:29:49.757Z,225.00
2019-02-24T08:30:49.792Z,193.02
2019-02-24T08:31:49.793Z,225.00
2019-02-24T08:32:49.796Z,225.00
2019-02-24T08:33:49.787Z,225.00
2019-02-24T08:34:49.817Z,225.00
2019-02-24T08:35:49.774Z,225.00
2019-02-24T08:36:49.803Z,266.20
2019-02-24T08:37:49.827Z,315.00
2019-02-24T08:38:50.044Z,315.00
2019-02-24T08:39:49.854Z,315.00
2019-02-24T08:40:49.832Z,315.00
2019-02-24T08:41:49.632Z,316.42
2019-02-24T08:42:49.657Z,241.23
2019-02-24T08:43:49.656Z,266.31
2019-02-24T08:44:49.675Z,317.56
2019-02-24T08:45:49.866Z,315.00
2019-02-24T08:46:49.690Z,315.00
2019-02-24T08:47:49.698Z,315.00
2019-02-24T08:48:49.689Z,315.00
2019-02-24T08:49:49.731Z,315.00
2019-02-24T08:50:49.700Z,315.00
2019-02-24T08:51:49.717Z,317.78
2019-02-24T08:52:49.704Z,0.00
2019-02-24T08:53:49.725Z,326.12
2019-02-24T08:54:49.796Z,315.00
2019-02-24T08:55:49.986Z,311.61
2019-02-24T08:56:49.746Z,315.00
2019-02-24T08:57:49.760Z,315.00
2019-02-24T08:58:49.784Z,315.00
2019-02-24T08:59:49.809Z,307.20
2019-02-24T09:00:51.294Z,241.61
2019-02-24T09:01:49.782Z,225.00
2019-02-24T09:02:49.784Z,228.83
2019-02-24T09:03:49.798Z,180.00
2019-02-24T09:04:49.812Z,180.00
2019-02-24T09:05:50.264Z,244.82
2019-02-24T09:06:49.836Z,278.13
2019-02-24T09:07:49.832Z,289.15
2019-02-24T09:08:49.827Z,315.00
2019-02-24T09:09:49.830Z,315.00
2019-02-24T09:10:49.877Z,315.00
2019-02-24T09:11:49.880Z,307.53
2019-02-24T09:12:49.845Z,294.86
2019-02-24T09:13:49.861Z,330.09
2019-02-24T09:14:49.871Z,241.10
2019-02-24T09:15:49.922Z,250.73
2019-02-24T09:16:49.948Z,90.00
2019-02-24T09:17:49.914Z,86.08
2019-02-24T09:18:49.893Z,326.84
2019-02-24T09:19:49.924Z,34.32
2019-02-24T09:20:49.942Z,255.16
2019-02-24T09:21:49.936Z,294.64
2019-02-24T09:22:49.962Z,324.36
2019-02-24T09:23:49.965Z,315.00
2019-02-24T09:24:49.973Z,302.27
2019-02-24T09:25:49.965Z,281.32
2019-02-24T09:26:50.016Z,276.74
2019-02-24T09:27:49.998Z,322.31
2019-02-24T09:28:50.917Z,305.06
2019-02-24T09:29:49.962Z,288.34
2019-02-24T09:30:50.210Z,306.32
2019-02-24T09:31:50.001Z,7.10
2019-02-24T09:32:50.017Z,304.22
2019-02-24T09:33:50.238Z,306.65
2019-02-24T09:34:50.251Z,283.50
2019-02-24T09:35:51.665Z,209.24
2019-02-24T09:36:50.077Z,90.00
2019-02-24T09:37:50.060Z,90.00
2019-02-24T09:38:50.055Z,106.62
2019-02-24T09:39:50.040Z,214.32
2019-02-24T09:40:50.119Z,91.02
2019-02-24T09:41:50.108Z,113.03
2019-02-24T09:42:50.089Z,98.04
2019-02-24T09:43:50.116Z,101.90
2019-02-24T09:44:50.327Z,93.68
2019-02-24T09:45:50.101Z,121.40
2019-02-24T09:46:50.129Z,100.03
2019-02-24T09:47:50.109Z,131.42
2019-02-24T09:48:50.159Z,122.58
2019-02-24T09:49:50.152Z,120.12
2019-02-24T09:50:50.191Z,92.50
2019-02-24T09:51:52.266Z,95.51
2019-02-24T09:52:50.179Z,96.22
2019-02-24T09:53:50.163Z,90.00
2019-02-24T09:54:50.172Z,100.84
2019-02-24T09:55:50.181Z,110.89
2019-02-24T09:56:50.230Z,91.54
2019-02-24T09:57:50.208Z,90.00
2019-02-24T09:58:50.216Z,90.00
2019-02-24T09:59:50.215Z,101.89
2019-02-24T10:00:50.218Z,104.13
2019-02-24T10:01:50.240Z,126.70
2019-02-24T10:02:50.285Z,135.00
2019-02-24T10:03:50.224Z,135.00
2019-02-24T10:04:50.257Z,89.43
2019-02-24T10:05:50.238Z,105.97
2019-02-24T10:06:50.258Z,135.00
2019-02-24T10:07:50.058Z,93.72
2019-02-24T10:08:50.079Z,117.32
2019-02-24T10:09:50.091Z,180.00
2019-02-24T10:10:50.286Z,95.63
2019-02-24T10:11:50.098Z,79.83
2019-02-24T10:12:50.110Z,270.00
2019-02-24T10:13:51.226Z,292.48
2019-02-24T10:14:50.195Z,90.00
2019-02-24T10:15:50.127Z,90.00
2019-02-24T10:16:50.182Z,126.52
2019-02-24T10:17:50.151Z,90.00
2019-02-24T10:18:50.164Z,90.00
2019-02-24T10:19:50.181Z,66.72
2019-02-24T10:20:50.222Z,5.85
2019-02-24T10:21:50.147Z,251.00
2019-02-24T10:22:50.162Z,250.97
2019-02-24T10:23:50.187Z,315.00
2019-02-24T10:24:50.188Z,310.55
2019-02-24T10:25:50.239Z,300.18
2019-02-24T10:26:50.226Z,300.86
2019-02-24T10:27:50.205Z,330.30
2019-02-24T10:28:50.241Z,191.20
2019-02-24T10:29:50.238Z,199.24
2019-02-24T10:30:50.224Z,320.97
2019-02-24T10:31:50.271Z,314.31
2019-02-24T10:32:50.264Z,295.27
2019-02-24T10:33:50.258Z,270.00
2019-02-24T10:34:50.311Z,286.79
2019-02-24T10:35:50.270Z,280.15
2019-02-24T10:36:50.290Z,269.13
2019-02-24T10:37:50.106Z,72.97
2019-02-24T10:38:50.085Z,90.00
2019-02-24T10:39:50.112Z,122.33
2019-02-24T10:40:50.311Z,188.28
2019-02-24T10:41:50.099Z,306.60
2019-02-24T10:42:50.135Z,337.82
2019-02-24T10:43:50.154Z,358.31
2019-02-24T10:44:50.122Z,279.11
2019-02-24T10:45:50.156Z,279.45
2019-02-24T10:46:50.168Z,293.30
2019-02-24T10:47:50.157Z,288.12
2019-02-24T10:48:50.228Z,267.20
2019-02-24T10:49:50.187Z,285.27
2019-02-24T10:50:50.174Z,322.18
2019-02-24T10:51:50.165Z,2.96
2019-02-24T10:52:50.192Z,341.29
2019-02-24T10:53:50.217Z,90.00
2019-02-24T10:54:50.227Z,109.16
2019-02-24T10:55:50.263Z,305.46
2019-02-24T10:56:50.242Z,285.12
2019-02-24T10:57:50.430Z,304.80
2019-02-24T10:58:50.238Z,284.87
2019-02-24T10:59:50.249Z,286.59
2019-02-24T11:00:50.250Z,307.08
2019-02-24T11:01:50.272Z,317.00
2019-02-24T11:02:50.259Z,272.88
2019-02-24T11:03:50.266Z,308.21
2019-02-24T11:04:50.281Z,328.20
2019-02-24T11:05:50.299Z,270.00
2019-02-24T11:06:50.553Z,279.29
2019-02-24T11:07:50.313Z,234.61
2019-02-24T11:08:50.323Z,268.19
2019-02-24T11:09:50.315Z,89.32
2019-02-24T11:10:50.516Z,303.43
2019-02-24T11:11:50.343Z,257.58
2019-02-24T11:12:50.400Z,228.93
2019-02-24T11:13:50.365Z,283.24
2019-02-24T11:14:50.337Z,270.00
2019-02-24T11:15:50.375Z,269.35
2019-02-24T11:16:50.350Z,178.92
2019-02-24T11:17:50.389Z,33.26
2019-02-24T11:18:50.396Z,254.54
2019-02-24T11:19:50.411Z,267.24
2019-02-24T11:20:50.364Z,225.00
2019-02-24T11:21:50.393Z,220.48
2019-02-24T11:22:50.412Z,90.00
2019-02-24T11:23:50.429Z,90.00
2019-02-24T11:24:50.428Z,36.85
2019-02-24T11:25:50.435Z,270.00
2019-02-24T11:26:50.441Z,225.05
2019-02-24T11:27:50.442Z,109.24
2019-02-24T11:28:50.480Z,90.00
2019-02-24T11:29:50.466Z,97.90
2019-02-24T11:30:50.487Z,135.00
2019-02-24T11:31:50.482Z,174.33
2019-02-24T11:32:50.499Z,180.00
2019-02-24T11:33:50.508Z,180.00
2019-02-24T11:34:50.486Z,180.00
2019-02-24T11:35:50.768Z,180.00
2019-02-24T11:36:50.721Z,225.19
2019-02-24T11:37:50.764Z,180.00
2019-02-24T11:38:50.728Z,180.00
2019-02-24T11:39:50.730Z,180.00
2019-02-24T11:40:50.726Z,180.00
2019-02-24T11:41:50.783Z,180.00
2019-02-24T11:42:50.761Z,160.49
2019-02-24T11:43:50.769Z,13.02
2019-02-24T11:44:50.765Z,0.00
2019-02-24T11:45:50.784Z,0.00
2019-02-24T11:46:50.791Z,0.00
2019-02-24T11:47:50.803Z,350.03
2019-02-24T11:48:50.874Z,270.00
2019-02-24T11:49:50.801Z,270.00
2019-02-24T11:50:50.790Z,270.00
2019-02-24T11:51:50.861Z,270.00
2019-02-24T11:52:50.840Z,270.00
2019-02-24T11:53:50.861Z,270.00
2019-02-24T11:54:50.886Z,270.00
2019-02-24T11:55:50.839Z,270.00
2019-02-24T11:56:50.850Z,280.22
2019-02-24T11:57:50.887Z,285.30
2019-02-24T11:58:50.903Z,90.00
2019-02-24T11:59:50.960Z,139.55
2019-02-24T12:00:50.907Z,277.86
2019-02-24T12:01:50.918Z,299.63
2019-02-24T12:02:50.917Z,299.90
2019-02-24T12:03:50.902Z,270.00
2019-02-24T12:04:50.944Z,261.52
2019-02-24T12:05:50.940Z,272.15
2019-02-24T12:06:51.044Z,0.00
2019-02-24T12:07:50.990Z,340.45
2019-02-24T12:08:50.953Z,315.83
2019-02-24T12:09:50.978Z,270.00
2019-02-24T12:10:50.988Z,290.28
2019-02-24T12:11:50.977Z,282.47
2019-02-24T12:12:51.008Z,315.00
2019-02-24T12:13:50.989Z,27.83
2019-02-24T12:14:51.000Z,90.00
2019-02-24T12:15:51.001Z,95.18
2019-02-24T12:16:51.080Z,218.95
2019-02-24T12:17:51.047Z,80.02
2019-02-24T12:18:51.024Z,45.00
2019-02-24T12:19:51.049Z,101.11
2019-02-24T12:20:51.047Z,117.58
2019-02-24T12:21:51.047Z,101.31
2019-02-24T12:22:51.067Z,83.76
2019-02-24T12:23:51.064Z,45.00
2019-02-24T12:24:51.298Z,225.00
2019-02-24T12:25:51.307Z,225.00
2019-02-24T12:26:51.319Z,214.18
2019-02-24T12:27:51.300Z,90.00
2019-02-24T12:28:51.291Z,112.89
2019-02-24T12:29:51.320Z,124.79
2019-02-24T12:30:51.307Z,130.90
2019-02-24T12:31:56.510Z,104.05
2019-02-24T12:32:51.333Z,123.11
2019-02-24T12:33:51.498Z,135.00
2019-02-24T12:34:51.357Z,135.00